sensor_id;sensor_type;location;lat;lon;timestamp;noise_LAeq;noise_LA_min;noise_LA_max;noise_LA01;noise_LA95
43787;Laerm;29409;49.306;8.500;2024-01-25T00:00:28;39.76;36.45;41.96;;
43787;Laerm;29409;49.306;8.500;2024-01-25T00:01:28;40.27;36.98;43.09;;
43787;Laerm;29409;49.306;8.500;2024-01-25T00:02:28;39.85;36.69;41.68;;
43787;Laerm;29409;49.306;8.500;2024-01-25T00:03:29;39.59;35.94;41.82;;
43787;Laerm;29409;49.306;8.500;2024-01-25T00:04:29;39.85;36.45;42.53;;
43787;Laerm;29409;49.306;8.500;2024-01-25T00:05:30;39.61;34.69;43.19;;
43787;Laerm;29409;49.306;8.500;2024-01-25T00:06:30;39.81;36.45;41.89;;
43787;Laerm;29409;49.306;8.500;2024-01-25T00:07:31;40.11;35.66;42.29;;
43787;Laerm;29409;49.306;8.500;2024-01-25T00:08:31;39.87;36.69;42.47;;
43787;Laerm;29409;49.306;8.500;2024-01-25T00:09:31;41.17;37.12;51.36;;
43787;Laerm;29409;49.306;8.500;2024-01-25T00:10:32;40.02;35.66;41.89;;
43787;Laerm;29409;49.306;8.500;2024-01-25T00:11:32;40.01;36.91;42.47;;
43787;Laerm;29409;49.306;8.500;2024-01-25T00:12:32;39.95;36.69;41.96;;
43787;Laerm;29409;49.306;8.500;2024-01-25T00:13:32;39.58;36.20;41.61;;
43787;Laerm;29409;49.306;8.500;2024-01-25T00:14:33;39.69;36.45;41.82;;
43787;Laerm;29409;49.306;8.500;2024-01-25T00:15:33;39.71;36.91;44.76;;
43787;Laerm;29409;49.306;8.500;2024-01-25T00:16:33;40.29;36.45;43.58;;
43787;Laerm;29409;49.306;8.500;2024-01-25T00:17:34;39.71;35.94;41.75;;
43787;Laerm;29409;49.306;8.500;2024-01-25T00:18:34;40.04;36.69;43.29;;
43787;Laerm;29409;49.306;8.500;2024-01-25T00:19:34;40.15;36.69;44.15;;
43787;Laerm;29409;49.306;8.500;2024-01-25T00:20:35;39.62;35.94;42.16;;
43787;Laerm;29409;49.306;8.500;2024-01-25T00:21:40;40.08;36.45;42.03;;
43787;Laerm;29409;49.306;8.500;2024-01-25T00:22:41;39.67;34.31;45.86;;
43787;Laerm;29409;49.306;8.500;2024-01-25T00:23:41;40.30;36.69;42.22;;
43787;Laerm;29409;49.306;8.500;2024-01-25T00:24:41;40.26;36.45;43.34;;
43787;Laerm;29409;49.306;8.500;2024-01-25T00:25:42;39.75;35.94;41.75;;
43787;Laerm;29409;49.306;8.500;2024-01-25T00:26:42;39.61;36.45;41.68;;
43787;Laerm;29409;49.306;8.500;2024-01-25T00:27:42;40.20;36.69;42.65;;
43787;Laerm;29409;49.306;8.500;2024-01-25T00:28:44;40.21;36.20;42.35;;
43787;Laerm;29409;49.306;8.500;2024-01-25T00:29:44;39.61;36.69;41.61;;
43787;Laerm;29409;49.306;8.500;2024-01-25T00:30:45;39.40;35.36;41.89;;
43787;Laerm;29409;49.306;8.500;2024-01-25T00:31:45;39.59;35.36;42.22;;
43787;Laerm;29409;49.306;8.500;2024-01-25T00:32:45;39.74;35.66;42.03;;
43787;Laerm;29409;49.306;8.500;2024-01-25T00:33:45;39.83;36.91;41.82;;
43787;Laerm;29409;49.306;8.500;2024-01-25T00:34:46;39.59;36.20;41.82;;
43787;Laerm;29409;49.306;8.500;2024-01-25T00:35:46;39.38;36.20;41.53;;
43787;Laerm;29409;49.306;8.500;2024-01-25T00:36:48;39.38;35.66;41.61;;
43787;Laerm;29409;49.306;8.500;2024-01-25T00:37:48;39.70;35.94;41.68;;
43787;Laerm;29409;49.306;8.500;2024-01-25T00:38:49;40.50;36.45;46.76;;
43787;Laerm;29409;49.306;8.500;2024-01-25T00:39:49;39.99;35.04;42.22;;
43787;Laerm;29409;49.306;8.500;2024-01-25T00:40:49;39.94;34.69;41.82;;
43787;Laerm;29409;49.306;8.500;2024-01-25T00:41:50;40.12;36.91;42.03;;
43787;Laerm;29409;49.306;8.500;2024-01-25T00:42:51;39.77;36.20;42.65;;
43787;Laerm;29409;49.306;8.500;2024-01-25T00:43:54;39.65;35.66;41.61;;
43787;Laerm;29409;49.306;8.500;2024-01-25T00:44:54;39.34;35.94;41.75;;
43787;Laerm;29409;49.306;8.500;2024-01-25T00:45:55;39.39;34.69;41.82;;
43787;Laerm;29409;49.306;8.500;2024-01-25T00:46:55;41.15;37.32;47.86;;
43787;Laerm;29409;49.306;8.500;2024-01-25T00:47:56;40.41;36.69;43.86;;
43787;Laerm;29409;49.306;8.500;2024-01-25T00:48:56;43.66;35.94;58.71;;
43787;Laerm;29409;49.306;8.500;2024-01-25T00:49:56;40.59;36.20;50.99;;
43787;Laerm;29409;49.306;8.500;2024-01-25T00:50:57;39.60;35.94;41.89;;
43787;Laerm;29409;49.306;8.500;2024-01-25T00:52:00;40.03;36.91;42.35;;
43787;Laerm;29409;49.306;8.500;2024-01-25T00:53:02;40.38;37.12;42.53;;
43787;Laerm;29409;49.306;8.500;2024-01-25T00:54:02;39.93;36.45;42.35;;
43787;Laerm;29409;49.306;8.500;2024-01-25T00:55:03;39.65;36.91;42.03;;
43787;Laerm;29409;49.306;8.500;2024-01-25T00:56:03;39.73;36.45;42.53;;
43787;Laerm;29409;49.306;8.500;2024-01-25T00:57:04;41.06;36.69;43.24;;
43787;Laerm;29409;49.306;8.500;2024-01-25T00:58:04;41.24;38.05;43.49;;
43787;Laerm;29409;49.306;8.500;2024-01-25T00:59:05;40.78;37.52;42.98;;
43787;Laerm;29409;49.306;8.500;2024-01-25T01:00:05;40.62;37.32;43.63;;
43787;Laerm;29409;49.306;8.500;2024-01-25T01:01:06;39.88;36.91;42.76;;
43787;Laerm;29409;49.306;8.500;2024-01-25T01:02:07;39.44;36.91;41.46;;
43787;Laerm;29409;49.306;8.500;2024-01-25T01:03:10;39.56;36.69;41.82;;
43787;Laerm;29409;49.306;8.500;2024-01-25T01:04:12;39.58;36.91;41.53;;
43787;Laerm;29409;49.306;8.500;2024-01-25T01:05:12;39.74;37.32;42.03;;
43787;Laerm;29409;49.306;8.500;2024-01-25T01:06:13;39.87;37.52;42.41;;
43787;Laerm;29409;49.306;8.500;2024-01-25T01:07:13;39.59;36.45;42.47;;
43787;Laerm;29409;49.306;8.500;2024-01-25T01:08:14;39.29;35.94;41.30;;
43787;Laerm;29409;49.306;8.500;2024-01-25T01:09:14;39.45;35.94;41.96;;
43787;Laerm;29409;49.306;8.500;2024-01-25T01:10:15;39.42;35.94;41.38;;
43787;Laerm;29409;49.306;8.500;2024-01-25T01:11:15;39.57;36.20;41.75;;
43787;Laerm;29409;49.306;8.500;2024-01-25T01:12:15;39.54;36.91;41.68;;
43787;Laerm;29409;49.306;8.500;2024-01-25T01:13:16;39.70;36.91;42.16;;
43787;Laerm;29409;49.306;8.500;2024-01-25T01:14:17;39.62;36.91;42.47;;
43787;Laerm;29409;49.306;8.500;2024-01-25T01:15:17;39.46;35.94;41.30;;
43787;Laerm;29409;49.306;8.500;2024-01-25T01:16:18;39.45;36.45;41.38;;
43787;Laerm;29409;49.306;8.500;2024-01-25T01:17:20;39.29;36.45;41.38;;
43787;Laerm;29409;49.306;8.500;2024-01-25T01:18:20;39.25;35.94;41.68;;
43787;Laerm;29409;49.306;8.500;2024-01-25T01:19:20;39.46;35.36;41.75;;
43787;Laerm;29409;49.306;8.500;2024-01-25T01:20:20;40.03;36.20;42.41;;
43787;Laerm;29409;49.306;8.500;2024-01-25T01:21:21;40.59;37.32;46.45;;
43787;Laerm;29409;49.306;8.500;2024-01-25T01:22:21;40.16;35.04;43.14;;
43787;Laerm;29409;49.306;8.500;2024-01-25T01:23:21;39.55;36.45;41.46;;
43787;Laerm;29409;49.306;8.500;2024-01-25T01:24:22;39.45;36.45;41.82;;
43787;Laerm;29409;49.306;8.500;2024-01-25T01:25:22;39.21;34.69;41.46;;
43787;Laerm;29409;49.306;8.500;2024-01-25T01:26:22;39.43;35.66;42.65;;
43787;Laerm;29409;49.306;8.500;2024-01-25T01:27:22;39.35;36.20;42.03;;
43787;Laerm;29409;49.306;8.500;2024-01-25T01:28:23;39.55;37.12;41.46;;
43787;Laerm;29409;49.306;8.500;2024-01-25T01:29:23;39.84;37.12;42.22;;
43787;Laerm;29409;49.306;8.500;2024-01-25T01:30:23;39.48;36.45;41.53;;
43787;Laerm;29409;49.306;8.500;2024-01-25T01:31:23;39.50;36.45;41.96;;
43787;Laerm;29409;49.306;8.500;2024-01-25T01:32:24;39.10;34.69;41.46;;
43787;Laerm;29409;49.306;8.500;2024-01-25T01:33:24;39.26;35.94;44.90;;
43787;Laerm;29409;49.306;8.500;2024-01-25T01:34:24;39.33;36.20;41.89;;
43787;Laerm;29409;49.306;8.500;2024-01-25T01:35:24;39.92;36.69;41.82;;
43787;Laerm;29409;49.306;8.500;2024-01-25T01:36:25;40.06;37.32;42.35;;
43787;Laerm;29409;49.306;8.500;2024-01-25T01:37:25;39.78;36.45;42.16;;
43787;Laerm;29409;49.306;8.500;2024-01-25T01:38:25;39.69;36.69;42.47;;
43787;Laerm;29409;49.306;8.500;2024-01-25T01:39:25;39.59;36.20;41.68;;
43787;Laerm;29409;49.306;8.500;2024-01-25T01:40:26;39.42;35.36;41.61;;
43787;Laerm;29409;49.306;8.500;2024-01-25T01:41:26;39.10;34.69;41.38;;
43787;Laerm;29409;49.306;8.500;2024-01-25T01:42:27;39.53;35.04;42.09;;
43787;Laerm;29409;49.306;8.500;2024-01-25T01:43:27;39.65;36.69;42.09;;
43787;Laerm;29409;49.306;8.500;2024-01-25T01:44:27;39.58;36.45;41.68;;
43787;Laerm;29409;49.306;8.500;2024-01-25T01:45:28;39.54;35.94;41.96;;
43787;Laerm;29409;49.306;8.500;2024-01-25T01:47:28;39.87;36.69;56.98;;
43787;Laerm;29409;49.306;8.500;2024-01-25T01:48:28;40.09;37.32;54.65;;
43787;Laerm;29409;49.306;8.500;2024-01-25T01:49:28;39.82;38.05;41.75;;
43787;Laerm;29409;49.306;8.500;2024-01-25T01:50:29;39.73;37.32;42.53;;
43787;Laerm;29409;49.306;8.500;2024-01-25T01:51:29;40.08;37.52;41.82;;
43787;Laerm;29409;49.306;8.500;2024-01-25T01:52:30;39.95;36.91;41.75;;
43787;Laerm;29409;49.306;8.500;2024-01-25T01:53:32;39.60;36.69;41.89;;
43787;Laerm;29409;49.306;8.500;2024-01-25T01:54:32;39.70;36.91;41.68;;
43787;Laerm;29409;49.306;8.500;2024-01-25T01:55:33;39.59;36.69;42.09;;
43787;Laerm;29409;49.306;8.500;2024-01-25T01:56:33;40.23;36.91;46.50;;
43787;Laerm;29409;49.306;8.500;2024-01-25T01:57:34;39.98;36.69;44.03;;
43787;Laerm;29409;49.306;8.500;2024-01-25T01:58:35;39.75;36.69;42.98;;
43787;Laerm;29409;49.306;8.500;2024-01-25T01:59:36;39.72;36.20;43.63;;
43787;Laerm;29409;49.306;8.500;2024-01-25T02:00:37;39.98;36.69;42.71;;
43787;Laerm;29409;49.306;8.500;2024-01-25T02:01:38;39.92;35.66;44.80;;
43787;Laerm;29409;49.306;8.500;2024-01-25T02:02:39;39.09;35.36;41.38;;
43787;Laerm;29409;49.306;8.500;2024-01-25T02:03:39;39.45;35.04;41.82;;
43787;Laerm;29409;49.306;8.500;2024-01-25T02:04:39;39.45;36.69;41.53;;
43787;Laerm;29409;49.306;8.500;2024-01-25T02:05:40;39.51;36.45;41.68;;
43787;Laerm;29409;49.306;8.500;2024-01-25T02:06:41;39.35;36.10;41.75;;
43787;Laerm;29409;49.306;8.500;2024-01-25T02:07:42;39.19;35.66;41.30;;
43787;Laerm;29409;49.306;8.500;2024-01-25T02:08:43;39.60;36.45;42.24;;
43787;Laerm;29409;49.306;8.500;2024-01-25T02:09:43;39.71;35.94;41.75;;
43787;Laerm;29409;49.306;8.500;2024-01-25T02:10:43;39.26;36.20;41.89;;
43787;Laerm;29409;49.306;8.500;2024-01-25T02:11:43;40.25;34.34;47.46;;
43787;Laerm;29409;49.306;8.500;2024-01-25T02:12:44;39.63;36.20;41.96;;
43787;Laerm;29409;49.306;8.500;2024-01-25T02:13:44;39.75;36.69;41.89;;
43787;Laerm;29409;49.306;8.500;2024-01-25T02:14:45;39.51;36.69;42.03;;
43787;Laerm;29409;49.306;8.500;2024-01-25T02:15:45;39.40;35.66;41.38;;
43787;Laerm;29409;49.306;8.500;2024-01-25T02:16:45;39.16;35.36;41.14;;
43787;Laerm;29409;49.306;8.500;2024-01-25T02:17:46;39.39;36.20;41.61;;
43787;Laerm;29409;49.306;8.500;2024-01-25T02:18:49;39.37;36.20;42.41;;
43787;Laerm;29409;49.306;8.500;2024-01-25T02:19:49;39.51;36.45;41.89;;
43787;Laerm;29409;49.306;8.500;2024-01-25T02:20:49;39.36;35.94;41.68;;
43787;Laerm;29409;49.306;8.500;2024-01-25T02:21:50;39.39;36.20;41.75;;
43787;Laerm;29409;49.306;8.500;2024-01-25T02:22:51;39.15;34.31;41.46;;
43787;Laerm;29409;49.306;8.500;2024-01-25T02:23:51;39.70;36.45;42.22;;
43787;Laerm;29409;49.306;8.500;2024-01-25T02:24:51;40.20;36.91;41.96;;
43787;Laerm;29409;49.306;8.500;2024-01-25T02:25:52;39.78;35.66;42.03;;
43787;Laerm;29409;49.306;8.500;2024-01-25T02:26:52;39.45;35.94;41.82;;
43787;Laerm;29409;49.306;8.500;2024-01-25T02:27:52;39.39;36.20;41.38;;
43787;Laerm;29409;49.306;8.500;2024-01-25T02:28:52;39.72;36.69;42.09;;
43787;Laerm;29409;49.306;8.500;2024-01-25T02:29:53;39.38;35.36;41.82;;
43787;Laerm;29409;49.306;8.500;2024-01-25T02:30:53;39.39;35.94;41.82;;
43787;Laerm;29409;49.306;8.500;2024-01-25T02:31:53;39.29;35.36;41.82;;
43787;Laerm;29409;49.306;8.500;2024-01-25T02:32:54;39.36;36.69;41.75;;
43787;Laerm;29409;49.306;8.500;2024-01-25T02:33:55;39.65;36.69;42.53;;
43787;Laerm;29409;49.306;8.500;2024-01-25T02:34:56;39.72;35.94;42.65;;
43787;Laerm;29409;49.306;8.500;2024-01-25T02:35:56;40.16;36.91;43.09;;
43787;Laerm;29409;49.306;8.500;2024-01-25T02:36:56;39.37;36.45;41.68;;
43787;Laerm;29409;49.306;8.500;2024-01-25T02:37:58;39.75;37.12;41.89;;
43787;Laerm;29409;49.306;8.500;2024-01-25T02:38:58;39.63;36.45;41.96;;
43787;Laerm;29409;49.306;8.500;2024-01-25T02:39:58;39.76;36.45;43.81;;
43787;Laerm;29409;49.306;8.500;2024-01-25T02:40:58;39.51;36.45;41.89;;
43787;Laerm;29409;49.306;8.500;2024-01-25T02:41:59;39.62;36.20;42.16;;
43787;Laerm;29409;49.306;8.500;2024-01-25T02:42:59;40.01;36.69;42.35;;
43787;Laerm;29409;49.306;8.500;2024-01-25T02:44:00;39.86;36.45;42.03;;
43787;Laerm;29409;49.306;8.500;2024-01-25T02:45:00;39.74;36.69;42.16;;
43787;Laerm;29409;49.306;8.500;2024-01-25T02:46:00;39.37;36.20;41.75;;
43787;Laerm;29409;49.306;8.500;2024-01-25T02:47:01;39.50;35.94;41.53;;
43787;Laerm;29409;49.306;8.500;2024-01-25T02:48:01;39.48;36.91;41.38;;
43787;Laerm;29409;49.306;8.500;2024-01-25T02:49:03;39.69;36.45;42.42;;
43787;Laerm;29409;49.306;8.500;2024-01-25T02:50:04;40.88;37.70;44.54;;
43787;Laerm;29409;49.306;8.500;2024-01-25T02:51:04;40.30;37.32;43.68;;
43787;Laerm;29409;49.306;8.500;2024-01-25T02:52:05;40.23;37.12;42.82;;
43787;Laerm;29409;49.306;8.500;2024-01-25T02:53:05;39.95;36.91;42.09;;
43787;Laerm;29409;49.306;8.500;2024-01-25T02:54:05;40.33;37.32;45.97;;
43787;Laerm;29409;49.306;8.500;2024-01-25T02:55:05;40.50;37.70;43.86;;
43787;Laerm;29409;49.306;8.500;2024-01-25T02:56:06;39.40;35.36;41.88;;
43787;Laerm;29409;49.306;8.500;2024-01-25T02:57:06;40.05;36.45;43.72;;
43787;Laerm;29409;49.306;8.500;2024-01-25T02:58:07;39.62;35.04;41.75;;
43787;Laerm;29409;49.306;8.500;2024-01-25T02:59:07;39.61;36.20;42.82;;
43787;Laerm;29409;49.306;8.500;2024-01-25T03:00:07;39.31;35.66;41.75;;
43787;Laerm;29409;49.306;8.500;2024-01-25T03:01:08;39.34;36.69;41.53;;
43787;Laerm;29409;49.306;8.500;2024-01-25T03:02:09;39.78;36.45;45.11;;
43787;Laerm;29409;49.306;8.500;2024-01-25T03:03:09;39.45;36.69;42.09;;
43787;Laerm;29409;49.306;8.500;2024-01-25T03:04:09;39.60;35.94;41.82;;
43787;Laerm;29409;49.306;8.500;2024-01-25T03:05:10;39.38;36.20;42.03;;
43787;Laerm;29409;49.306;8.500;2024-01-25T03:06:10;39.40;36.20;41.61;;
43787;Laerm;29409;49.306;8.500;2024-01-25T03:07:10;39.56;36.45;42.59;;
43787;Laerm;29409;49.306;8.500;2024-01-25T03:08:10;39.76;36.45;42.09;;
43787;Laerm;29409;49.306;8.500;2024-01-25T03:09:10;40.21;36.69;42.93;;
43787;Laerm;29409;49.306;8.500;2024-01-25T03:10:11;40.26;37.32;42.29;;
43787;Laerm;29409;49.306;8.500;2024-01-25T03:11:11;40.54;37.32;44.27;;
43787;Laerm;29409;49.306;8.500;2024-01-25T03:12:12;39.95;36.45;42.16;;
43787;Laerm;29409;49.306;8.500;2024-01-25T03:13:12;39.57;36.20;41.68;;
43787;Laerm;29409;49.306;8.500;2024-01-25T03:14:12;39.54;36.45;42.16;;
43787;Laerm;29409;49.306;8.500;2024-01-25T03:15:12;39.59;35.94;42.16;;
43787;Laerm;29409;49.306;8.500;2024-01-25T03:16:13;39.37;34.69;41.68;;
43787;Laerm;29409;49.306;8.500;2024-01-25T03:17:13;40.80;37.12;46.20;;
43787;Laerm;29409;49.306;8.500;2024-01-25T03:18:13;40.03;36.91;42.59;;
43787;Laerm;29409;49.306;8.500;2024-01-25T03:19:14;40.80;36.20;47.34;;
43787;Laerm;29409;49.306;8.500;2024-01-25T03:20:14;39.76;35.66;41.89;;
43787;Laerm;29409;49.306;8.500;2024-01-25T03:21:14;41.09;36.69;43.72;;
43787;Laerm;29409;49.306;8.500;2024-01-25T03:22:15;40.26;36.91;42.41;;
43787;Laerm;29409;49.306;8.500;2024-01-25T03:23:15;39.73;36.69;42.53;;
43787;Laerm;29409;49.306;8.500;2024-01-25T03:24:15;39.70;36.45;42.00;;
43787;Laerm;29409;49.306;8.500;2024-01-25T03:25:15;39.81;36.91;42.03;;
43787;Laerm;29409;49.306;8.500;2024-01-25T03:26:16;39.53;36.45;42.00;;
43787;Laerm;29409;49.306;8.500;2024-01-25T03:27:16;39.82;36.20;43.44;;
43787;Laerm;29409;49.306;8.500;2024-01-25T03:28:16;39.84;36.20;42.47;;
43787;Laerm;29409;49.306;8.500;2024-01-25T03:29:18;39.81;36.69;42.16;;
43787;Laerm;29409;49.306;8.500;2024-01-25T03:30:19;39.62;36.34;42.03;;
43787;Laerm;29409;49.306;8.500;2024-01-25T03:31:19;39.56;36.45;41.68;;
43787;Laerm;29409;49.306;8.500;2024-01-25T03:32:19;40.04;36.69;42.22;;
43787;Laerm;29409;49.306;8.500;2024-01-25T03:33:19;40.13;37.53;42.03;;
43787;Laerm;29409;49.306;8.500;2024-01-25T03:34:19;39.84;36.69;42.03;;
43787;Laerm;29409;49.306;8.500;2024-01-25T03:35:20;39.95;37.32;44.69;;
43787;Laerm;29409;49.306;8.500;2024-01-25T03:36:20;39.92;36.91;42.09;;
43787;Laerm;29409;49.306;8.500;2024-01-25T03:37:20;39.75;36.20;42.09;;
43787;Laerm;29409;49.306;8.500;2024-01-25T03:38:20;40.13;36.91;43.63;;
43787;Laerm;29409;49.306;8.500;2024-01-25T03:39:21;39.76;36.45;42.03;;
43787;Laerm;29409;49.306;8.500;2024-01-25T03:40:21;40.45;35.04;47.50;;
43787;Laerm;29409;49.306;8.500;2024-01-25T03:41:21;39.96;36.91;44.65;;
43787;Laerm;29409;49.306;8.500;2024-01-25T03:42:23;40.52;37.32;43.14;;
43787;Laerm;29409;49.306;8.500;2024-01-25T03:43:25;40.23;36.77;42.16;;
43787;Laerm;29409;49.306;8.500;2024-01-25T03:44:25;40.43;37.52;42.98;;
43787;Laerm;29409;49.306;8.500;2024-01-25T03:45:25;40.80;37.88;42.98;;
43787;Laerm;29409;49.306;8.500;2024-01-25T03:46:26;40.77;37.88;42.98;;
43787;Laerm;29409;49.306;8.500;2024-01-25T03:47:26;40.89;38.37;44.03;;
43787;Laerm;29409;49.306;8.500;2024-01-25T03:48:26;40.95;37.70;49.03;;
43787;Laerm;29409;49.306;8.500;2024-01-25T03:49:27;40.73;37.70;44.15;;
43787;Laerm;29409;49.306;8.500;2024-01-25T03:50:27;40.27;37.52;42.53;;
43787;Laerm;29409;49.306;8.500;2024-01-25T03:51:27;41.12;37.70;45.11;;
43787;Laerm;29409;49.306;8.500;2024-01-25T03:52:28;42.62;39.34;47.86;;
43787;Laerm;29409;49.306;8.500;2024-01-25T03:53:30;41.34;37.35;45.30;;
43787;Laerm;29409;49.306;8.500;2024-01-25T03:54:30;40.49;37.53;42.71;;
43787;Laerm;29409;49.306;8.500;2024-01-25T03:55:30;40.78;37.52;42.93;;
43787;Laerm;29409;49.306;8.500;2024-01-25T03:56:30;40.73;37.88;42.93;;
43787;Laerm;29409;49.306;8.500;2024-01-25T03:57:31;40.81;37.52;44.31;;
43787;Laerm;29409;49.306;8.500;2024-01-25T03:58:31;41.34;37.88;46.23;;
43787;Laerm;29409;49.306;8.500;2024-01-25T03:59:31;41.19;37.70;48.18;;
43787;Laerm;29409;49.306;8.500;2024-01-25T04:00:32;40.17;37.32;42.41;;
43787;Laerm;29409;49.306;8.500;2024-01-25T04:01:32;40.26;37.32;42.35;;
43787;Laerm;29409;49.306;8.500;2024-01-25T04:02:33;40.59;36.91;45.11;;
43787;Laerm;29409;49.306;8.500;2024-01-25T04:03:33;41.57;37.52;48.78;;
43787;Laerm;29409;49.306;8.500;2024-01-25T04:04:33;40.00;36.20;41.89;;
43787;Laerm;29409;49.306;8.500;2024-01-25T04:05:33;40.44;37.52;42.59;;
43787;Laerm;29409;49.306;8.500;2024-01-25T04:06:34;40.10;37.12;42.22;;
43787;Laerm;29409;49.306;8.500;2024-01-25T04:07:35;40.00;36.45;42.47;;
43787;Laerm;29409;49.306;8.500;2024-01-25T04:08:35;40.65;37.12;46.45;;
43787;Laerm;29409;49.306;8.500;2024-01-25T04:09:35;40.06;36.91;42.16;;
43787;Laerm;29409;49.306;8.500;2024-01-25T04:10:36;41.09;37.12;45.11;;
43787;Laerm;29409;49.306;8.500;2024-01-25T04:11:36;41.16;37.88;45.97;;
43787;Laerm;29409;49.306;8.500;2024-01-25T04:12:37;41.06;38.05;45.72;;
43787;Laerm;29409;49.306;8.500;2024-01-25T04:13:37;41.57;38.37;45.30;;
43787;Laerm;29409;49.306;8.500;2024-01-25T04:14:37;41.18;38.21;45.36;;
43787;Laerm;29409;49.306;8.500;2024-01-25T04:15:38;40.54;37.32;42.59;;
43787;Laerm;29409;49.306;8.500;2024-01-25T04:16:38;41.10;37.52;45.75;;
43787;Laerm;29409;49.306;8.500;2024-01-25T04:17:39;42.35;37.52;50.97;;
43787;Laerm;29409;49.306;8.500;2024-01-25T04:18:39;46.57;37.52;63.16;;
43787;Laerm;29409;49.306;8.500;2024-01-25T04:19:39;40.70;37.70;45.57;;
43787;Laerm;29409;49.306;8.500;2024-01-25T04:20:41;41.46;38.05;49.04;;
43787;Laerm;29409;49.306;8.500;2024-01-25T04:21:41;40.73;37.70;43.72;;
43787;Laerm;29409;49.306;8.500;2024-01-25T04:22:41;41.32;38.21;43.99;;
43787;Laerm;29409;49.306;8.500;2024-01-25T04:23:42;41.16;38.05;44.15;;
43787;Laerm;29409;49.306;8.500;2024-01-25T04:24:42;41.39;38.37;46.20;;
43787;Laerm;29409;49.306;8.500;2024-01-25T04:25:43;40.95;37.88;48.83;;
43787;Laerm;29409;49.306;8.500;2024-01-25T04:26:44;44.65;38.67;55.96;;
43787;Laerm;29409;49.306;8.500;2024-01-25T04:27:44;41.88;38.52;47.30;;
43787;Laerm;29409;49.306;8.500;2024-01-25T04:28:44;41.00;37.70;42.88;;
43787;Laerm;29409;49.306;8.500;2024-01-25T04:29:45;41.53;37.70;45.01;;
43787;Laerm;29409;49.306;8.500;2024-01-25T04:30:45;40.68;37.32;45.30;;
43787;Laerm;29409;49.306;8.500;2024-01-25T04:31:45;41.39;38.05;47.76;;
43787;Laerm;29409;49.306;8.500;2024-01-25T04:32:46;41.33;37.88;51.22;;
43787;Laerm;29409;49.306;8.500;2024-01-25T04:33:46;41.17;38.05;53.54;;
43787;Laerm;29409;49.306;8.500;2024-01-25T04:34:46;41.45;38.52;45.83;;
43787;Laerm;29409;49.306;8.500;2024-01-25T04:35:47;41.73;38.05;48.21;;
43787;Laerm;29409;49.306;8.500;2024-01-25T04:36:48;41.78;38.32;47.76;;
43787;Laerm;29409;49.306;8.500;2024-01-25T04:37:48;44.23;38.05;56.20;;
43787;Laerm;29409;49.306;8.500;2024-01-25T04:38:48;42.55;38.67;48.29;;
43787;Laerm;29409;49.306;8.500;2024-01-25T04:39:48;41.83;37.88;49.41;;
43787;Laerm;29409;49.306;8.500;2024-01-25T04:40:49;46.79;38.05;59.89;;
43787;Laerm;29409;49.306;8.500;2024-01-25T04:41:50;41.44;37.88;47.77;;
43787;Laerm;29409;49.306;8.500;2024-01-25T04:42:50;42.24;39.08;46.55;;
43787;Laerm;29409;49.306;8.500;2024-01-25T04:43:51;41.44;38.21;47.24;;
43787;Laerm;29409;49.306;8.500;2024-01-25T04:44:51;41.64;38.67;44.39;;
43787;Laerm;29409;49.306;8.500;2024-01-25T04:45:51;41.09;38.95;42.82;;
43787;Laerm;29409;49.306;8.500;2024-01-25T04:46:52;41.33;38.52;45.30;;
43787;Laerm;29409;49.306;8.500;2024-01-25T04:47:53;41.52;38.02;50.23;;
43787;Laerm;29409;49.306;8.500;2024-01-25T04:48:53;42.11;38.95;47.74;;
43787;Laerm;29409;49.306;8.500;2024-01-25T04:49:54;45.84;38.05;61.77;;
43787;Laerm;29409;49.306;8.500;2024-01-25T04:50:55;41.27;38.37;42.93;;
43787;Laerm;29409;49.306;8.500;2024-01-25T04:51:56;41.08;38.37;44.62;;
43787;Laerm;29409;49.306;8.500;2024-01-25T04:52:56;44.08;38.05;55.78;;
43787;Laerm;29409;49.306;8.500;2024-01-25T04:53:56;48.02;38.52;65.65;;
43787;Laerm;29409;49.306;8.500;2024-01-25T04:54:57;41.84;38.52;47.26;;
43787;Laerm;29409;49.306;8.500;2024-01-25T04:55:57;41.65;38.81;46.41;;
43787;Laerm;29409;49.306;8.500;2024-01-25T04:56:59;41.60;38.81;44.62;;
43787;Laerm;29409;49.306;8.500;2024-01-25T04:58:00;41.99;39.21;46.48;;
43787;Laerm;29409;49.306;8.500;2024-01-25T04:59:00;41.84;38.95;47.63;;
43787;Laerm;29409;49.306;8.500;2024-01-25T05:00:00;40.96;38.21;44.51;;
43787;Laerm;29409;49.306;8.500;2024-01-25T05:01:00;42.35;39.23;48.85;;
43787;Laerm;29409;49.306;8.500;2024-01-25T05:02:01;42.96;39.70;47.04;;
43787;Laerm;29409;49.306;8.500;2024-01-25T05:03:02;42.78;39.92;46.20;;
43787;Laerm;29409;49.306;8.500;2024-01-25T05:04:03;42.82;39.46;46.66;;
43787;Laerm;29409;49.306;8.500;2024-01-25T05:05:04;42.57;39.21;47.57;;
43787;Laerm;29409;49.306;8.500;2024-01-25T05:06:04;43.25;39.92;50.69;;
43787;Laerm;29409;49.306;8.500;2024-01-25T05:07:04;42.03;39.57;46.07;;
43787;Laerm;29409;49.306;8.500;2024-01-25T05:08:05;41.73;38.67;45.54;;
43787;Laerm;29409;49.306;8.500;2024-01-25T05:09:05;42.55;39.46;47.44;;
43787;Laerm;29409;49.306;8.500;2024-01-25T05:10:09;42.26;38.67;46.87;;
43787;Laerm;29409;49.306;8.500;2024-01-25T05:11:09;41.62;39.34;43.54;;
43787;Laerm;29409;49.306;8.500;2024-01-25T05:12:09;42.61;39.58;46.87;;
43787;Laerm;29409;49.306;8.500;2024-01-25T05:13:09;43.15;39.21;49.03;;
43787;Laerm;29409;49.306;8.500;2024-01-25T05:14:10;43.79;39.46;51.35;;
43787;Laerm;29409;49.306;8.500;2024-01-25T05:15:10;42.66;39.70;45.75;;
43787;Laerm;29409;49.306;8.500;2024-01-25T05:16:10;42.33;39.34;47.57;;
43787;Laerm;29409;49.306;8.500;2024-01-25T05:17:11;42.49;38.95;50.47;;
43787;Laerm;29409;49.306;8.500;2024-01-25T05:18:11;41.13;38.52;42.93;;
43787;Laerm;29409;49.306;8.500;2024-01-25T05:19:11;43.02;38.81;48.23;;
43787;Laerm;29409;49.306;8.500;2024-01-25T05:20:12;41.65;38.95;44.54;;
43787;Laerm;29409;49.306;8.500;2024-01-25T05:21:13;42.09;39.21;47.10;;
43787;Laerm;29409;49.306;8.500;2024-01-25T05:22:13;44.06;39.58;54.29;;
43787;Laerm;29409;49.306;8.500;2024-01-25T05:23:13;42.75;39.58;49.06;;
43787;Laerm;29409;49.306;8.500;2024-01-25T05:24:14;42.63;39.58;48.05;;
43787;Laerm;29409;49.306;8.500;2024-01-25T05:25:14;43.11;40.23;55.89;;
43787;Laerm;29409;49.306;8.500;2024-01-25T05:26:15;44.98;39.08;69.06;;
43787;Laerm;29409;49.306;8.500;2024-01-25T05:27:15;50.07;39.92;64.15;;
43787;Laerm;29409;49.306;8.500;2024-01-25T05:28:15;41.45;38.81;43.72;;
43787;Laerm;29409;49.306;8.500;2024-01-25T05:29:16;42.97;40.33;47.65;;
43787;Laerm;29409;49.306;8.500;2024-01-25T05:30:16;42.59;39.58;46.93;;
43787;Laerm;29409;49.306;8.500;2024-01-25T05:31:17;42.84;39.81;47.76;;
43787;Laerm;29409;49.306;8.500;2024-01-25T05:32:17;43.31;40.43;46.52;;
43787;Laerm;29409;49.306;8.500;2024-01-25T05:33:18;44.38;41.82;48.28;;
43787;Laerm;29409;49.306;8.500;2024-01-25T05:34:18;42.99;40.53;45.20;;
43787;Laerm;29409;49.306;8.500;2024-01-25T05:35:18;44.58;40.62;49.52;;
43787;Laerm;29409;49.306;8.500;2024-01-25T05:36:19;43.80;41.14;50.19;;
43787;Laerm;29409;49.306;8.500;2024-01-25T05:37:20;44.90;41.96;49.19;;
43787;Laerm;29409;49.306;8.500;2024-01-25T05:38:20;43.65;40.27;49.50;;
43787;Laerm;29409;49.306;8.500;2024-01-25T05:39:20;43.39;40.43;48.13;;